createdAt,value
2022-07-29T00:01:58.823Z,60.49
2022-07-29T00:07:01.450Z,67.41
2022-07-29T00:12:04.576Z,59.43
2022-07-29T00:17:07.172Z,57.10
2022-07-29T00:22:09.961Z,63.47
2022-07-29T00:27:12.712Z,61.97
2022-07-29T00:32:15.509Z,55.88
2022-07-29T00:37:18.231Z,59.56
2022-07-29T00:42:21.041Z,66.77
2022-07-29T00:47:23.758Z,57.19
2022-07-29T00:52:26.644Z,57.70
2022-07-29T00:57:29.460Z,61.14
2022-07-29T01:02:32.387Z,69.07
2022-07-29T01:07:37.898Z,59.75
2022-07-29T01:12:41.989Z,57.14
2022-07-29T01:18:08.081Z,61.65
2022-07-29T01:23:29.192Z,66.75
2022-07-29T01:28:58.449Z,57.74
2022-07-29T01:34:06.536Z,59.54
2022-07-29T01:39:19.849Z,67.14
2022-07-29T01:44:55.323Z,57.10
2022-07-29T01:50:01.074Z,59.78
2022-07-29T01:55:15.199Z,66.98
2022-07-29T02:00:18.649Z,57.86
2022-07-29T02:05:24.383Z,57.25
2022-07-29T02:10:30.946Z,65.21
2022-07-29T02:15:35.396Z,65.67
2022-07-29T02:20:40.227Z,57.36
2022-07-29T02:25:44.072Z,60.18
2022-07-29T02:30:51.160Z,67.43
2022-07-29T02:35:55.997Z,58.82
2022-07-29T02:41:01.148Z,56.25
2022-07-29T02:46:12.728Z,62.66
2022-07-29T02:51:44.520Z,64.77
2022-07-29T02:56:50.591Z,56.36
2022-07-29T03:01:55.376Z,58.48
2022-07-29T03:07:01.064Z,67.79
2022-07-29T03:12:05.267Z,60.02
2022-07-29T03:17:08.501Z,57.06
2022-07-29T03:22:11.477Z,60.14
2022-07-29T03:27:14.299Z,67.12
2022-07-29T03:32:17.201Z,61.79
2022-07-29T03:37:27.123Z,56.05
2022-07-29T03:42:34.432Z,59.55
2022-07-29T03:47:50.584Z,60.24
2022-07-29T03:52:54.604Z,70.61
2022-07-29T03:57:58.239Z,60.16
2022-07-29T04:03:01.683Z,55.77
2022-07-29T04:08:04.710Z,59.62
2022-07-29T04:13:07.448Z,67.66
2022-07-29T04:18:10.226Z,58.15
2022-07-29T04:23:12.981Z,57.61
2022-07-29T04:28:15.748Z,60.60
2022-07-29T04:33:19.862Z,69.76
2022-07-29T04:38:23.267Z,59.76
2022-07-29T04:43:25.987Z,56.16
2022-07-29T04:48:30.172Z,58.83
2022-07-29T04:53:32.785Z,68.02
2022-07-29T04:58:36.322Z,58.98
2022-07-29T05:03:39.057Z,57.18
2022-07-29T05:08:42.143Z,59.95
2022-07-29T05:13:45.356Z,67.78
2022-07-29T05:18:48.983Z,58.53
2022-07-29T05:23:51.715Z,57.29
2022-07-29T05:28:55.592Z,62.98
2022-07-29T05:33:58.344Z,63.95
2022-07-29T05:39:01.057Z,55.83
2022-07-29T05:44:03.780Z,58.16
2022-07-29T05:49:07.655Z,64.95
2022-07-29T05:54:10.455Z,53.80
2022-07-29T05:59:15.571Z,56.97
2022-07-29T06:04:21.430Z,59.93
2022-07-29T06:09:24.850Z,64.17
2022-07-29T06:14:27.872Z,54.71
2022-07-29T06:19:30.643Z,57.35
2022-07-29T06:24:33.536Z,59.42
2022-07-29T06:29:36.455Z,61.73
2022-07-29T06:34:39.280Z,51.12
2022-07-29T06:39:43.426Z,53.64
2022-07-29T06:44:46.142Z,58.18
2022-07-29T06:49:48.984Z,59.20
2022-07-29T06:54:51.752Z,61.01
2022-07-29T06:59:54.448Z,60.99
2022-07-29T07:04:57.400Z,61.08
2022-07-29T07:10:00.123Z,60.74
2022-07-29T07:15:02.976Z,60.41
2022-07-29T07:20:07.431Z,59.35
2022-07-29T07:25:12.941Z,59.33
2022-07-29T07:30:16.137Z,57.62
2022-07-29T07:35:18.920Z,57.89
2022-07-29T07:40:21.694Z,56.75
2022-07-29T07:45:25.235Z,56.91
2022-07-29T07:50:28.012Z,56.05
2022-07-29T07:55:53.223Z,55.85
2022-07-29T08:00:53.807Z,54.48
2022-07-29T08:05:56.877Z,54.30
2022-07-29T08:11:03.123Z,54.83
2022-07-29T08:16:16.426Z,53.73
2022-07-29T08:21:19.611Z,53.06
2022-07-29T08:26:23.688Z,52.34
2022-07-29T08:31:26.617Z,51.46
2022-07-29T08:36:29.518Z,52.15
2022-07-29T08:41:32.498Z,50.81
2022-07-29T08:46:39.390Z,51.40
2022-07-29T08:51:49.676Z,50.04
2022-07-29T08:56:54.794Z,50.95
2022-07-29T09:02:01.291Z,50.20
2022-07-29T09:07:06.976Z,50.18
2022-07-29T09:12:13.183Z,49.47
2022-07-29T09:17:50.277Z,49.66
2022-07-29T09:22:54.568Z,49.97
2022-07-29T09:28:07.083Z,50.42
2022-07-29T09:33:09.658Z,50.12
2022-07-29T09:38:12.951Z,50.59
2022-07-29T09:43:15.902Z,51.27
2022-07-29T09:48:21.535Z,49.97
2022-07-29T09:53:36.090Z,48.72
2022-07-29T09:58:39.665Z,48.08
2022-07-29T10:03:53.220Z,46.72
2022-07-29T10:08:56.166Z,45.64
2022-07-29T10:13:59.572Z,45.26
2022-07-29T10:19:02.730Z,43.78
2022-07-29T10:24:07.490Z,44.72
2022-07-29T10:29:17.901Z,43.91
2022-07-29T10:34:37.937Z,44.36
2022-07-29T10:39:49.695Z,43.22
2022-07-29T10:44:54.443Z,41.96
2022-07-29T10:50:03.805Z,42.22
2022-07-29T10:55:07.933Z,41.67
2022-07-29T11:05:54.619Z,41.72
2022-07-29T11:11:22.429Z,42.11
2022-07-29T11:17:06.073Z,41.06
2022-07-29T11:22:11.481Z,40.33
2022-07-29T11:27:18.241Z,40.12
2022-07-29T11:38:37.999Z,39.89
2022-07-29T11:43:52.970Z,40.53
2022-07-29T11:48:56.806Z,41.05
2022-07-29T11:54:05.172Z,41.23
2022-07-29T11:59:10.489Z,41.91
2022-07-29T12:04:18.143Z,41.30
2022-07-29T12:09:24.949Z,40.77
2022-07-29T12:14:29.710Z,40.69
2022-07-29T12:19:44.418Z,40.60
2022-07-29T12:24:47.502Z,40.49
2022-07-29T12:29:58.328Z,40.16
2022-07-29T12:35:05.576Z,39.64
2022-07-29T12:40:11.801Z,40.02
2022-07-29T12:45:17.582Z,39.49
2022-07-29T12:50:25.915Z,39.03
2022-07-29T12:55:43.662Z,38.38
2022-07-29T13:00:46.488Z,37.74
2022-07-29T13:05:51.523Z,37.29
2022-07-29T13:10:54.376Z,36.73
2022-07-29T13:16:08.830Z,37.17
2022-07-29T13:21:13.580Z,37.15
2022-07-29T13:26:20.657Z,37.72
2022-07-29T13:31:23.588Z,37.82
2022-07-29T13:36:26.305Z,37.62
2022-07-29T13:41:29.536Z,37.48
2022-07-29T13:46:32.274Z,37.77
2022-07-29T13:51:35.034Z,37.47
2022-07-29T13:56:37.791Z,36.83
2022-07-29T14:01:43.222Z,36.87
2022-07-29T14:06:46.011Z,37.03
2022-07-29T14:11:50.689Z,36.68
2022-07-29T14:16:53.440Z,36.21
2022-07-29T14:21:56.927Z,36.13
2022-07-29T14:27:01.111Z,36.11
2022-07-29T14:32:05.318Z,36.44
2022-07-29T14:37:08.185Z,36.67
2022-07-29T14:42:12.758Z,36.21
2022-07-29T14:47:15.796Z,35.81
2022-07-29T14:52:18.487Z,35.39
2022-07-29T14:57:21.185Z,33.57
2022-07-29T15:02:40.065Z,33.37
2022-07-29T15:07:46.583Z,31.82
2022-07-29T15:12:49.383Z,31.89
2022-07-29T15:17:52.099Z,31.42
2022-07-29T15:22:56.567Z,30.66
2022-07-29T15:28:03.294Z,30.27
2022-07-29T15:33:05.982Z,30.15
2022-07-29T15:38:09.010Z,30.86
2022-07-29T15:43:11.811Z,31.57
2022-07-29T15:48:15.024Z,31.73
2022-07-29T15:53:21.281Z,31.88
2022-07-29T15:58:24.138Z,31.83
2022-07-29T16:03:26.942Z,30.91
2022-07-29T16:08:29.781Z,30.18
2022-07-29T16:13:32.552Z,28.91
2022-07-29T16:18:35.267Z,27.95
2022-07-29T16:23:39.634Z,27.98
2022-07-29T16:28:42.867Z,27.43
2022-07-29T16:33:54.902Z,26.24
2022-07-29T16:38:58.677Z,25.42
2022-07-29T16:44:01.424Z,26.74
2022-07-29T16:49:04.595Z,28.61
2022-07-29T16:54:11.580Z,29.02
2022-07-29T16:59:14.361Z,29.50
2022-07-29T17:04:17.176Z,30.11
2022-07-29T17:09:21.149Z,30.50
2022-07-29T17:14:29.415Z,29.56
2022-07-29T17:19:35.326Z,29.46
2022-07-29T17:24:38.974Z,30.14
2022-07-29T17:29:44.138Z,29.63
2022-07-29T17:34:46.909Z,29.26
2022-07-29T17:39:50.945Z,29.05
2022-07-29T17:44:53.658Z,28.57
2022-07-29T17:49:56.354Z,29.30
2022-07-29T17:54:59.113Z,30.81
2022-07-29T18:00:01.941Z,31.29
2022-07-29T18:05:05.340Z,32.05
2022-07-29T18:10:08.472Z,33.95
2022-07-29T18:15:11.247Z,35.02
2022-07-29T18:20:14.063Z,36.83
2022-07-29T18:25:17.098Z,38.46
2022-07-29T18:30:20.391Z,38.48
2022-07-29T18:35:23.131Z,40.35
2022-07-29T18:40:25.977Z,41.57
2022-07-29T18:45:29.053Z,42.26
2022-07-29T18:50:32.441Z,42.53
2022-07-29T18:55:35.310Z,43.91
2022-07-29T19:00:38.133Z,45.13
2022-07-29T19:05:41.422Z,46.15
2022-07-29T19:10:44.222Z,47.18
2022-07-29T19:15:47.095Z,51.18
2022-07-29T19:20:49.921Z,48.84
2022-07-29T19:25:53.374Z,49.08
2022-07-29T19:30:57.121Z,49.45
2022-07-29T19:36:00.140Z,51.13
2022-07-29T19:41:02.850Z,52.92
2022-07-29T19:46:05.651Z,54.75
2022-07-29T19:51:08.371Z,55.54
2022-07-29T19:56:11.291Z,55.25
2022-07-29T20:01:14.110Z,56.31
2022-07-29T20:06:17.625Z,56.35
2022-07-29T20:11:20.368Z,57.09
2022-07-29T20:16:23.154Z,57.06
2022-07-29T20:21:28.700Z,57.98
2022-07-29T20:26:31.469Z,58.52
2022-07-29T20:31:34.338Z,58.78
2022-07-29T20:36:37.654Z,70.56
2022-07-29T20:41:40.783Z,64.14
2022-07-29T20:46:43.645Z,52.30
2022-07-29T20:51:46.438Z,51.72
2022-07-29T20:56:49.198Z,53.45
2022-07-29T21:01:51.982Z,55.59
2022-07-29T21:06:54.710Z,56.76
2022-07-29T21:11:59.478Z,58.01
2022-07-29T21:17:04.728Z,59.38
2022-07-29T21:22:07.592Z,71.17
2022-07-29T21:27:29.130Z,61.89
2022-07-29T21:32:31.926Z,53.59
2022-07-29T21:37:34.786Z,53.61
2022-07-29T21:42:37.503Z,54.88
2022-07-29T21:47:40.361Z,57.73
2022-07-29T21:52:43.107Z,59.45
2022-07-29T21:57:45.799Z,68.95
2022-07-29T22:02:48.663Z,63.10
2022-07-29T22:07:54.698Z,54.18
2022-07-29T22:13:01.843Z,55.37
2022-07-29T22:18:04.668Z,57.19
2022-07-29T22:23:07.391Z,59.59
2022-07-29T22:28:10.134Z,69.60
2022-07-29T22:33:17.349Z,61.02
2022-07-29T22:38:20.906Z,54.72
2022-07-29T22:43:23.647Z,56.14
2022-07-29T22:48:26.601Z,57.33
2022-07-29T22:53:29.355Z,59.59
2022-07-29T22:58:32.116Z,71.73
2022-07-29T23:03:34.974Z,64.32
2022-07-29T23:08:37.739Z,55.06
2022-07-29T23:13:40.485Z,55.73
2022-07-29T23:18:43.226Z,58.16
2022-07-29T23:23:45.946Z,60.87
2022-07-29T23:28:48.684Z,70.79
2022-07-29T23:33:51.434Z,60.36
2022-07-29T23:38:55.413Z,55.74
2022-07-29T23:43:58.978Z,58.55
2022-07-29T23:49:01.804Z,60.59
2022-07-29T23:54:04.744Z,70.80
2022-07-29T23:59:07.546Z,61.85
